sensor_id;sensor_type;location;lat;lon;timestamp;temperature;humidity
11619;DHT22;5865;48.776;9.280;2022-07-29T00:00:29;18.80;99.90
11619;DHT22;5865;48.776;9.280;2022-07-29T00:05:25;18.70;99.90
11619;DHT22;5865;48.776;9.280;2022-07-29T00:07:52;18.60;99.90
11619;DHT22;5865;48.776;9.280;2022-07-29T00:12:46;18.60;99.90
11619;DHT22;5865;48.776;9.280;2022-07-29T00:15:13;18.50;99.90
11619;DHT22;5865;48.776;9.280;2022-07-29T00:17:40;18.60;99.90
11619;DHT22;5865;48.776;9.280;2022-07-29T00:20:09;18.50;99.90
11619;DHT22;5865;48.776;9.280;2022-07-29T00:22:38;18.50;99.90
11619;DHT22;5865;48.776;9.280;2022-07-29T00:25:06;18.50;99.90
11619;DHT22;5865;48.776;9.280;2022-07-29T00:27:34;18.40;99.90
11619;DHT22;5865;48.776;9.280;2022-07-29T00:30:01;18.40;99.90
11619;DHT22;5865;48.776;9.280;2022-07-29T00:32:27;18.30;99.90
11619;DHT22;5865;48.776;9.280;2022-07-29T00:34:55;18.10;99.90
11619;DHT22;5865;48.776;9.280;2022-07-29T00:37:40;18.20;99.90
11619;DHT22;5865;48.776;9.280;2022-07-29T00:40:08;18.10;99.90
11619;DHT22;5865;48.776;9.280;2022-07-29T00:42:42;18.10;99.90
11619;DHT22;5865;48.776;9.280;2022-07-29T00:45:09;18.00;99.90
11619;DHT22;5865;48.776;9.280;2022-07-29T00:47:36;18.00;99.90
11619;DHT22;5865;48.776;9.280;2022-07-29T00:50:05;17.90;99.90
11619;DHT22;5865;48.776;9.280;2022-07-29T00:52:33;17.80;99.90
11619;DHT22;5865;48.776;9.280;2022-07-29T00:57:29;17.80;99.90
11619;DHT22;5865;48.776;9.280;2022-07-29T00:59:56;17.80;99.90
11619;DHT22;5865;48.776;9.280;2022-07-29T01:02:23;18.00;99.90
11619;DHT22;5865;48.776;9.280;2022-07-29T01:04:51;18.00;99.90
11619;DHT22;5865;48.776;9.280;2022-07-29T01:07:18;18.00;99.90
11619;DHT22;5865;48.776;9.280;2022-07-29T01:09:46;18.00;99.90
11619;DHT22;5865;48.776;9.280;2022-07-29T01:12:17;18.00;99.90
11619;DHT22;5865;48.776;9.280;2022-07-29T01:14:45;18.00;99.90
11619;DHT22;5865;48.776;9.280;2022-07-29T01:17:19;18.00;99.90
11619;DHT22;5865;48.776;9.280;2022-07-29T01:19:52;18.00;99.90
11619;DHT22;5865;48.776;9.280;2022-07-29T01:22:29;17.90;99.90
11619;DHT22;5865;48.776;9.280;2022-07-29T01:25:17;17.90;99.90
11619;DHT22;5865;48.776;9.280;2022-07-29T01:28:08;17.90;99.90
11619;DHT22;5865;48.776;9.280;2022-07-29T01:30:38;17.80;99.90
11619;DHT22;5865;48.776;9.280;2022-07-29T01:33:14;17.80;99.90
11619;DHT22;5865;48.776;9.280;2022-07-29T01:36:07;17.70;99.90
11619;DHT22;5865;48.776;9.280;2022-07-29T01:38:38;17.60;99.90
11619;DHT22;5865;48.776;9.280;2022-07-29T01:41:08;17.60;99.90
11619;DHT22;5865;48.776;9.280;2022-07-29T01:43:42;17.60;99.90
11619;DHT22;5865;48.776;9.280;2022-07-29T01:46:15;17.60;99.90
11619;DHT22;5865;48.776;9.280;2022-07-29T01:48:47;17.50;99.90
11619;DHT22;5865;48.776;9.280;2022-07-29T01:51:19;17.50;99.90
11619;DHT22;5865;48.776;9.280;2022-07-29T01:53:54;17.50;99.90
11619;DHT22;5865;48.776;9.280;2022-07-29T01:56:23;17.50;99.90
11619;DHT22;5865;48.776;9.280;2022-07-29T01:58:51;17.60;99.90
11619;DHT22;5865;48.776;9.280;2022-07-29T02:01:21;17.60;99.90
11619;DHT22;5865;48.776;9.280;2022-07-29T02:03:50;17.40;99.90
11619;DHT22;5865;48.776;9.280;2022-07-29T02:06:21;17.30;99.90
11619;DHT22;5865;48.776;9.280;2022-07-29T02:08:49;17.30;99.90
11619;DHT22;5865;48.776;9.280;2022-07-29T02:11:16;17.20;99.90
11619;DHT22;5865;48.776;9.280;2022-07-29T02:13:44;17.10;99.90
11619;DHT22;5865;48.776;9.280;2022-07-29T02:16:12;17.20;99.90
11619;DHT22;5865;48.776;9.280;2022-07-29T02:18:42;17.30;99.90
11619;DHT22;5865;48.776;9.280;2022-07-29T02:21:12;17.30;99.90
11619;DHT22;5865;48.776;9.280;2022-07-29T02:23:40;17.20;99.90
11619;DHT22;5865;48.776;9.280;2022-07-29T02:28:35;16.90;99.90
11619;DHT22;5865;48.776;9.280;2022-07-29T02:31:03;17.00;99.90
11619;DHT22;5865;48.776;9.280;2022-07-29T02:36:02;17.20;99.90
11619;DHT22;5865;48.776;9.280;2022-07-29T02:38:30;17.20;99.90
11619;DHT22;5865;48.776;9.280;2022-07-29T02:41:17;17.10;99.90
11619;DHT22;5865;48.776;9.280;2022-07-29T02:43:47;17.10;99.90
11619;DHT22;5865;48.776;9.280;2022-07-29T02:46:19;17.00;99.90
11619;DHT22;5865;48.776;9.280;2022-07-29T02:48:51;16.90;99.90
11619;DHT22;5865;48.776;9.280;2022-07-29T02:51:23;16.80;99.90
11619;DHT22;5865;48.776;9.280;2022-07-29T02:53:56;16.70;99.90
11619;DHT22;5865;48.776;9.280;2022-07-29T02:56:27;16.70;99.90
11619;DHT22;5865;48.776;9.280;2022-07-29T02:58:59;16.90;99.90
11619;DHT22;5865;48.776;9.280;2022-07-29T03:01:31;16.80;99.90
11619;DHT22;5865;48.776;9.280;2022-07-29T03:04:03;16.70;99.90
11619;DHT22;5865;48.776;9.280;2022-07-29T03:06:33;16.60;99.90
11619;DHT22;5865;48.776;9.280;2022-07-29T03:09:01;16.60;99.90
11619;DHT22;5865;48.776;9.280;2022-07-29T03:11:29;16.80;99.90
11619;DHT22;5865;48.776;9.280;2022-07-29T03:13:56;16.70;99.90
11619;DHT22;5865;48.776;9.280;2022-07-29T03:16:23;16.70;99.90
11619;DHT22;5865;48.776;9.280;2022-07-29T03:18:52;16.70;99.90
11619;DHT22;5865;48.776;9.280;2022-07-29T03:26:15;16.60;99.90
11619;DHT22;5865;48.776;9.280;2022-07-29T03:28:42;16.70;99.90
11619;DHT22;5865;48.776;9.280;2022-07-29T03:33:37;16.70;99.90
11619;DHT22;5865;48.776;9.280;2022-07-29T03:36:04;16.60;99.90
11619;DHT22;5865;48.776;9.280;2022-07-29T03:38:33;16.70;99.90
11619;DHT22;5865;48.776;9.280;2022-07-29T03:41:04;16.70;99.90
11619;DHT22;5865;48.776;9.280;2022-07-29T03:43:35;16.60;99.90
11619;DHT22;5865;48.776;9.280;2022-07-29T03:46:05;16.60;99.90
11619;DHT22;5865;48.776;9.280;2022-07-29T03:48:34;16.60;99.90
11619;DHT22;5865;48.776;9.280;2022-07-29T03:51:02;16.60;99.90
11619;DHT22;5865;48.776;9.280;2022-07-29T03:53:29;16.50;99.90
11619;DHT22;5865;48.776;9.280;2022-07-29T03:55:59;16.60;99.90
11619;DHT22;5865;48.776;9.280;2022-07-29T03:58:30;16.60;99.90
11619;DHT22;5865;48.776;9.280;2022-07-29T04:00:58;16.50;99.90
11619;DHT22;5865;48.776;9.280;2022-07-29T04:03:25;16.60;99.90
11619;DHT22;5865;48.776;9.280;2022-07-29T04:06:00;16.80;99.90
11619;DHT22;5865;48.776;9.280;2022-07-29T04:08:27;16.80;99.90
11619;DHT22;5865;48.776;9.280;2022-07-29T04:10:54;17.00;99.90
11619;DHT22;5865;48.776;9.280;2022-07-29T04:13:21;17.00;99.90
11619;DHT22;5865;48.776;9.280;2022-07-29T04:15:50;17.10;99.90
11619;DHT22;5865;48.776;9.280;2022-07-29T04:18:17;17.00;99.90
11619;DHT22;5865;48.776;9.280;2022-07-29T04:20:44;17.00;99.90
11619;DHT22;5865;48.776;9.280;2022-07-29T04:23:11;17.00;99.90
11619;DHT22;5865;48.776;9.280;2022-07-29T04:25:39;17.30;99.90
11619;DHT22;5865;48.776;9.280;2022-07-29T04:28:07;17.20;99.90
11619;DHT22;5865;48.776;9.280;2022-07-29T04:53:29;17.50;99.90
11619;DHT22;5865;48.776;9.280;2022-07-29T04:55:59;17.60;99.90
11619;DHT22;5865;48.776;9.280;2022-07-29T04:58:28;17.60;99.90
11619;DHT22;5865;48.776;9.280;2022-07-29T05:08:21;17.90;99.90
11619;DHT22;5865;48.776;9.280;2022-07-29T08:45:53;24.80;99.90
11619;DHT22;5865;48.776;9.280;2022-07-29T08:55:50;25.60;99.90
11619;DHT22;5865;48.776;9.280;2022-07-29T09:03:42;25.60;99.90
11619;DHT22;5865;48.776;9.280;2022-07-29T09:34:26;27.20;99.90
11619;DHT22;5865;48.776;9.280;2022-07-29T10:17:05;30.10;95.20
11619;DHT22;5865;48.776;9.280;2022-07-29T10:33:05;30.10;91.70
11619;DHT22;5865;48.776;9.280;2022-07-29T10:35:54;30.20;90.70
11619;DHT22;5865;48.776;9.280;2022-07-29T10:38:41;30.10;90.70
11619;DHT22;5865;48.776;9.280;2022-07-29T10:41:32;29.20;90.40
11619;DHT22;5865;48.776;9.280;2022-07-29T10:46:35;28.60;90.60
11619;DHT22;5865;48.776;9.280;2022-07-29T11:05:17;25.50;99.80
11619;DHT22;5865;48.776;9.280;2022-07-29T11:08:18;25.50;99.80
11619;DHT22;5865;48.776;9.280;2022-07-29T11:10:47;24.60;99.90
11619;DHT22;5865;48.776;9.280;2022-07-29T11:13:45;23.70;99.90
11619;DHT22;5865;48.776;9.280;2022-07-29T11:21:43;21.80;99.90
11619;DHT22;5865;48.776;9.280;2022-07-29T11:24:15;21.70;99.90
11619;DHT22;5865;48.776;9.280;2022-07-29T11:26:43;20.40;99.90
11619;DHT22;5865;48.776;9.280;2022-07-29T11:29:19;20.30;99.90
11619;DHT22;5865;48.776;9.280;2022-07-29T11:31:49;19.90;99.90
11619;DHT22;5865;48.776;9.280;2022-07-29T11:40:16;18.90;99.90
11619;DHT22;5865;48.776;9.280;2022-07-29T11:42:46;18.70;99.90
11619;DHT22;5865;48.776;9.280;2022-07-29T11:45:16;18.50;99.90
11619;DHT22;5865;48.776;9.280;2022-07-29T11:47:50;18.30;99.90
11619;DHT22;5865;48.776;9.280;2022-07-29T11:50:30;18.20;99.90
11619;DHT22;5865;48.776;9.280;2022-07-29T11:52:57;18.50;99.90
11619;DHT22;5865;48.776;9.280;2022-07-29T11:55:26;18.60;99.90
11619;DHT22;5865;48.776;9.280;2022-07-29T11:57:54;18.60;99.90
11619;DHT22;5865;48.776;9.280;2022-07-29T12:00:24;19.00;99.90
11619;DHT22;5865;48.776;9.280;2022-07-29T12:05:19;19.30;99.90
11619;DHT22;5865;48.776;9.280;2022-07-29T12:07:48;19.60;99.90
11619;DHT22;5865;48.776;9.280;2022-07-29T12:10:15;19.60;99.90
11619;DHT22;5865;48.776;9.280;2022-07-29T12:12:51;19.70;99.90
11619;DHT22;5865;48.776;9.280;2022-07-29T12:15:19;19.70;99.90
11619;DHT22;5865;48.776;9.280;2022-07-29T12:17:47;20.10;99.90
11619;DHT22;5865;48.776;9.280;2022-07-29T12:20:22;20.10;99.90
11619;DHT22;5865;48.776;9.280;2022-07-29T12:27:57;20.50;99.90
11619;DHT22;5865;48.776;9.280;2022-07-29T12:30:34;20.90;99.90
11619;DHT22;5865;48.776;9.280;2022-07-29T12:33:01;21.00;99.90
11619;DHT22;5865;48.776;9.280;2022-07-29T12:35:36;21.00;99.90
11619;DHT22;5865;48.776;9.280;2022-07-29T12:38:04;21.60;99.90
11619;DHT22;5865;48.776;9.280;2022-07-29T12:40:31;21.30;99.90
11619;DHT22;5865;48.776;9.280;2022-07-29T12:43:11;21.70;99.90
11619;DHT22;5865;48.776;9.280;2022-07-29T12:45:39;21.60;99.90
11619;DHT22;5865;48.776;9.280;2022-07-29T12:48:07;21.50;99.90
11619;DHT22;5865;48.776;9.280;2022-07-29T12:53:27;21.30;99.90
11619;DHT22;5865;48.776;9.280;2022-07-29T12:55:59;21.20;99.90
11619;DHT22;5865;48.776;9.280;2022-07-29T13:01:06;21.50;99.90
11619;DHT22;5865;48.776;9.280;2022-07-29T13:03:50;21.30;99.90
11619;DHT22;5865;48.776;9.280;2022-07-29T13:06:36;21.30;99.90
11619;DHT22;5865;48.776;9.280;2022-07-29T13:09:06;21.60;99.90
11619;DHT22;5865;48.776;9.280;2022-07-29T13:11:34;21.50;99.90
11619;DHT22;5865;48.776;9.280;2022-07-29T13:14:04;21.40;99.90
11619;DHT22;5865;48.776;9.280;2022-07-29T13:17:05;21.00;99.90
11619;DHT22;5865;48.776;9.280;2022-07-29T13:27:02;20.60;99.90
11619;DHT22;5865;48.776;9.280;2022-07-29T13:31:59;20.40;99.90
11619;DHT22;5865;48.776;9.280;2022-07-29T13:34:25;20.30;99.90
11619;DHT22;5865;48.776;9.280;2022-07-29T13:36:52;20.20;99.90
11619;DHT22;5865;48.776;9.280;2022-07-29T13:39:19;20.20;99.90
11619;DHT22;5865;48.776;9.280;2022-07-29T13:41:46;20.10;99.90
11619;DHT22;5865;48.776;9.280;2022-07-29T13:44:13;20.20;99.90
11619;DHT22;5865;48.776;9.280;2022-07-29T13:46:44;20.50;99.90
11619;DHT22;5865;48.776;9.280;2022-07-29T13:49:11;20.60;99.90
11619;DHT22;5865;48.776;9.280;2022-07-29T13:51:38;20.60;99.90
11619;DHT22;5865;48.776;9.280;2022-07-29T13:54:05;20.80;99.90
11619;DHT22;5865;48.776;9.280;2022-07-29T13:56:32;21.80;99.90
11619;DHT22;5865;48.776;9.280;2022-07-29T13:58:59;21.30;99.90
11619;DHT22;5865;48.776;9.280;2022-07-29T14:03:57;21.90;99.90
11619;DHT22;5865;48.776;9.280;2022-07-29T14:06:24;21.90;99.90
11619;DHT22;5865;48.776;9.280;2022-07-29T14:08:51;21.90;99.90
11619;DHT22;5865;48.776;9.280;2022-07-29T14:11:17;21.90;99.90
11619;DHT22;5865;48.776;9.280;2022-07-29T14:13:44;22.60;99.90
11619;DHT22;5865;48.776;9.280;2022-07-29T14:16:12;23.20;99.90
11619;DHT22;5865;48.776;9.280;2022-07-29T14:18:39;23.80;99.90
11619;DHT22;5865;48.776;9.280;2022-07-29T14:21:07;23.80;99.90
11619;DHT22;5865;48.776;9.280;2022-07-29T14:43:14;22.90;99.90
11619;DHT22;5865;48.776;9.280;2022-07-29T14:45:43;22.60;99.90
11619;DHT22;5865;48.776;9.280;2022-07-29T14:48:09;22.50;99.90
11619;DHT22;5865;48.776;9.280;2022-07-29T14:50:37;22.80;99.90
11619;DHT22;5865;48.776;9.280;2022-07-29T14:53:04;23.00;99.90
11619;DHT22;5865;48.776;9.280;2022-07-29T14:55:32;23.20;99.90
11619;DHT22;5865;48.776;9.280;2022-07-29T14:57:59;23.30;99.90
11619;DHT22;5865;48.776;9.280;2022-07-29T15:00:27;23.70;99.90
11619;DHT22;5865;48.776;9.280;2022-07-29T15:02:57;24.00;99.90
11619;DHT22;5865;48.776;9.280;2022-07-29T15:05:24;23.90;99.90
11619;DHT22;5865;48.776;9.280;2022-07-29T15:07:51;23.50;99.90
11619;DHT22;5865;48.776;9.280;2022-07-29T15:10:19;23.50;99.90
11619;DHT22;5865;48.776;9.280;2022-07-29T15:12:47;23.50;99.90
11619;DHT22;5865;48.776;9.280;2022-07-29T15:15:14;23.40;99.90
11619;DHT22;5865;48.776;9.280;2022-07-29T15:17:41;23.10;99.90
11619;DHT22;5865;48.776;9.280;2022-07-29T15:20:09;23.00;99.90
11619;DHT22;5865;48.776;9.280;2022-07-29T15:22:37;22.90;99.90
11619;DHT22;5865;48.776;9.280;2022-07-29T15:25:06;23.00;99.90
11619;DHT22;5865;48.776;9.280;2022-07-29T15:27:33;23.20;99.90
11619;DHT22;5865;48.776;9.280;2022-07-29T15:30:01;23.30;99.90
11619;DHT22;5865;48.776;9.280;2022-07-29T15:32:28;23.80;99.90
11619;DHT22;5865;48.776;9.280;2022-07-29T15:34:55;23.80;99.90
11619;DHT22;5865;48.776;9.280;2022-07-29T15:37:51;23.80;99.90
11619;DHT22;5865;48.776;9.280;2022-07-29T15:40:21;23.80;99.90
11619;DHT22;5865;48.776;9.280;2022-07-29T15:42:48;23.90;99.90
11619;DHT22;5865;48.776;9.280;2022-07-29T15:45:17;24.00;99.90
11619;DHT22;5865;48.776;9.280;2022-07-29T15:47:45;23.90;99.90
11619;DHT22;5865;48.776;9.280;2022-07-29T15:50:12;24.10;99.90
11619;DHT22;5865;48.776;9.280;2022-07-29T15:52:44;23.20;99.90
11619;DHT22;5865;48.776;9.280;2022-07-29T15:55:11;23.10;99.90
11619;DHT22;5865;48.776;9.280;2022-07-29T15:57:40;23.50;99.90
11619;DHT22;5865;48.776;9.280;2022-07-29T16:00:08;23.50;99.90
11619;DHT22;5865;48.776;9.280;2022-07-29T16:02:37;23.50;99.90
11619;DHT22;5865;48.776;9.280;2022-07-29T16:05:05;23.50;99.90
11619;DHT22;5865;48.776;9.280;2022-07-29T16:07:32;23.50;99.90
11619;DHT22;5865;48.776;9.280;2022-07-29T16:09:59;23.60;99.90
11619;DHT22;5865;48.776;9.280;2022-07-29T16:12:26;23.70;99.90
11619;DHT22;5865;48.776;9.280;2022-07-29T16:14:53;23.80;99.90
11619;DHT22;5865;48.776;9.280;2022-07-29T16:17:20;23.40;99.90
11619;DHT22;5865;48.776;9.280;2022-07-29T16:19:48;23.20;99.90
11619;DHT22;5865;48.776;9.280;2022-07-29T16:22:15;23.20;99.90
11619;DHT22;5865;48.776;9.280;2022-07-29T16:24:42;23.20;99.90
11619;DHT22;5865;48.776;9.280;2022-07-29T16:27:09;22.90;99.90
11619;DHT22;5865;48.776;9.280;2022-07-29T16:29:36;23.20;99.90
11619;DHT22;5865;48.776;9.280;2022-07-29T16:32:04;23.30;99.90
11619;DHT22;5865;48.776;9.280;2022-07-29T16:37:00;23.20;99.90
11619;DHT22;5865;48.776;9.280;2022-07-29T16:39:27;23.40;99.90
11619;DHT22;5865;48.776;9.280;2022-07-29T16:41:54;23.20;99.90
11619;DHT22;5865;48.776;9.280;2022-07-29T16:44:21;23.30;99.90
11619;DHT22;5865;48.776;9.280;2022-07-29T16:46:48;23.40;99.90
11619;DHT22;5865;48.776;9.280;2022-07-29T16:49:15;22.90;99.90
11619;DHT22;5865;48.776;9.280;2022-07-29T16:51:42;22.90;99.90
11619;DHT22;5865;48.776;9.280;2022-07-29T16:54:10;22.80;99.90
11619;DHT22;5865;48.776;9.280;2022-07-29T16:56:37;22.90;99.90
11619;DHT22;5865;48.776;9.280;2022-07-29T16:59:04;23.10;99.90
11619;DHT22;5865;48.776;9.280;2022-07-29T17:01:31;23.00;99.90
11619;DHT22;5865;48.776;9.280;2022-07-29T17:06:31;23.00;99.90
11619;DHT22;5865;48.776;9.280;2022-07-29T17:09:00;23.00;99.90
11619;DHT22;5865;48.776;9.280;2022-07-29T17:13:56;23.00;99.90
11619;DHT22;5865;48.776;9.280;2022-07-29T17:16:23;22.90;99.90
11619;DHT22;5865;48.776;9.280;2022-07-29T17:18:50;23.00;99.90
11619;DHT22;5865;48.776;9.280;2022-07-29T17:21:18;23.00;99.90
11619;DHT22;5865;48.776;9.280;2022-07-29T17:23:45;23.10;99.90
11619;DHT22;5865;48.776;9.280;2022-07-29T17:26:12;23.10;99.90
11619;DHT22;5865;48.776;9.280;2022-07-29T17:28:41;23.20;99.90
11619;DHT22;5865;48.776;9.280;2022-07-29T17:31:08;23.20;99.90
11619;DHT22;5865;48.776;9.280;2022-07-29T17:33:35;23.30;99.90
11619;DHT22;5865;48.776;9.280;2022-07-29T17:36:03;23.50;99.90
11619;DHT22;5865;48.776;9.280;2022-07-29T17:38:47;23.30;99.90
11619;DHT22;5865;48.776;9.280;2022-07-29T17:41:15;23.00;99.90
11619;DHT22;5865;48.776;9.280;2022-07-29T17:46:10;22.90;99.90
11619;DHT22;5865;48.776;9.280;2022-07-29T17:48:37;23.00;99.90
11619;DHT22;5865;48.776;9.280;2022-07-29T17:51:04;23.20;99.90
11619;DHT22;5865;48.776;9.280;2022-07-29T17:53:31;23.30;99.90
11619;DHT22;5865;48.776;9.280;2022-07-29T17:55:58;23.20;99.90
11619;DHT22;5865;48.776;9.280;2022-07-29T17:58:25;23.40;99.90
11619;DHT22;5865;48.776;9.280;2022-07-29T18:00:54;23.50;99.90
11619;DHT22;5865;48.776;9.280;2022-07-29T18:03:21;23.60;99.90
11619;DHT22;5865;48.776;9.280;2022-07-29T18:05:48;23.90;99.90
11619;DHT22;5865;48.776;9.280;2022-07-29T18:08:15;24.10;99.90
11619;DHT22;5865;48.776;9.280;2022-07-29T18:10:42;24.40;99.90
11619;DHT22;5865;48.776;9.280;2022-07-29T18:13:10;24.50;99.90
11619;DHT22;5865;48.776;9.280;2022-07-29T18:15:38;24.60;99.90
11619;DHT22;5865;48.776;9.280;2022-07-29T18:18:06;24.50;99.90
11619;DHT22;5865;48.776;9.280;2022-07-29T18:20:33;23.90;99.90
11619;DHT22;5865;48.776;9.280;2022-07-29T18:23:01;23.80;99.90
11619;DHT22;5865;48.776;9.280;2022-07-29T18:25:28;23.90;99.90
11619;DHT22;5865;48.776;9.280;2022-07-29T18:27:55;24.00;99.90
11619;DHT22;5865;48.776;9.280;2022-07-29T18:30:22;23.80;99.90
11619;DHT22;5865;48.776;9.280;2022-07-29T18:32:49;23.70;99.90
11619;DHT22;5865;48.776;9.280;2022-07-29T18:35:18;23.50;99.90
11619;DHT22;5865;48.776;9.280;2022-07-29T18:37:45;23.40;99.90
11619;DHT22;5865;48.776;9.280;2022-07-29T18:40:12;22.90;99.90
11619;DHT22;5865;48.776;9.280;2022-07-29T18:42:39;22.80;99.90
11619;DHT22;5865;48.776;9.280;2022-07-29T18:45:07;22.50;99.90
11619;DHT22;5865;48.776;9.280;2022-07-29T18:47:34;22.40;99.90
11619;DHT22;5865;48.776;9.280;2022-07-29T18:50:02;22.00;99.90
11619;DHT22;5865;48.776;9.280;2022-07-29T18:52:30;21.90;99.90
11619;DHT22;5865;48.776;9.280;2022-07-29T18:54:59;21.70;99.90
11619;DHT22;5865;48.776;9.280;2022-07-29T18:57:27;21.60;99.90
11619;DHT22;5865;48.776;9.280;2022-07-29T18:59:54;21.40;99.90
11619;DHT22;5865;48.776;9.280;2022-07-29T19:02:21;21.30;99.90
11619;DHT22;5865;48.776;9.280;2022-07-29T19:04:49;21.10;99.90
11619;DHT22;5865;48.776;9.280;2022-07-29T19:07:16;21.00;99.90
11619;DHT22;5865;48.776;9.280;2022-07-29T19:09:44;20.60;99.90
11619;DHT22;5865;48.776;9.280;2022-07-29T19:12:11;20.60;99.90
11619;DHT22;5865;48.776;9.280;2022-07-29T19:14:38;20.50;99.90
11619;DHT22;5865;48.776;9.280;2022-07-29T19:17:05;20.40;99.90
11619;DHT22;5865;48.776;9.280;2022-07-29T19:19:33;20.10;99.90
11619;DHT22;5865;48.776;9.280;2022-07-29T19:22:00;20.10;99.90
11619;DHT22;5865;48.776;9.280;2022-07-29T19:26:56;19.80;99.90
11619;DHT22;5865;48.776;9.280;2022-07-29T19:34:19;19.40;99.90
11619;DHT22;5865;48.776;9.280;2022-07-29T19:39:13;19.20;99.90
11619;DHT22;5865;48.776;9.280;2022-07-29T19:44:10;19.40;99.90
11619;DHT22;5865;48.776;9.280;2022-07-29T19:46:37;19.30;99.90
11619;DHT22;5865;48.776;9.280;2022-07-29T19:49:05;19.40;99.90
11619;DHT22;5865;48.776;9.280;2022-07-29T19:51:33;19.40;99.90
11619;DHT22;5865;48.776;9.280;2022-07-29T19:54:00;19.40;99.90
11619;DHT22;5865;48.776;9.280;2022-07-29T20:01:26;19.10;99.90
11619;DHT22;5865;48.776;9.280;2022-07-29T20:03:53;19.20;99.90
11619;DHT22;5865;48.776;9.280;2022-07-29T20:13:43;18.70;99.90
11619;DHT22;5865;48.776;9.280;2022-07-29T20:16:10;18.60;99.90
11619;DHT22;5865;48.776;9.280;2022-07-29T20:18:39;18.50;99.90
11619;DHT22;5865;48.776;9.280;2022-07-29T20:21:07;18.50;99.90
11619;DHT22;5865;48.776;9.280;2022-07-29T20:23:34;18.40;99.90
11619;DHT22;5865;48.776;9.280;2022-07-29T20:26:02;18.20;99.90
11619;DHT22;5865;48.776;9.280;2022-07-29T20:28:29;18.20;99.90
11619;DHT22;5865;48.776;9.280;2022-07-29T20:33:24;18.10;99.90
11619;DHT22;5865;48.776;9.280;2022-07-29T20:40:53;18.40;99.90
11619;DHT22;5865;48.776;9.280;2022-07-29T20:43:23;18.40;99.90
11619;DHT22;5865;48.776;9.280;2022-07-29T20:48:32;18.10;99.90
11619;DHT22;5865;48.776;9.280;2022-07-29T20:53:28;18.00;99.90
11619;DHT22;5865;48.776;9.280;2022-07-29T20:55:55;17.80;99.90
11619;DHT22;5865;48.776;9.280;2022-07-29T21:03:21;17.50;99.90
11619;DHT22;5865;48.776;9.280;2022-07-29T21:05:48;17.40;99.90
11619;DHT22;5865;48.776;9.280;2022-07-29T21:08:17;17.50;99.90
11619;DHT22;5865;48.776;9.280;2022-07-29T21:10:47;17.40;99.90
11619;DHT22;5865;48.776;9.280;2022-07-29T21:13:14;17.40;99.90
11619;DHT22;5865;48.776;9.280;2022-07-29T21:18:10;17.40;99.90
11619;DHT22;5865;48.776;9.280;2022-07-29T21:20:51;17.30;99.90
11619;DHT22;5865;48.776;9.280;2022-07-29T21:23:24;17.20;99.90
11619;DHT22;5865;48.776;9.280;2022-07-29T21:25:57;17.10;99.90
11619;DHT22;5865;48.776;9.280;2022-07-29T21:31:02;16.90;99.90
11619;DHT22;5865;48.776;9.280;2022-07-29T21:33:30;16.80;99.90
11619;DHT22;5865;48.776;9.280;2022-07-29T21:36:00;16.90;99.90
11619;DHT22;5865;48.776;9.280;2022-07-29T21:38:29;16.70;99.90
11619;DHT22;5865;48.776;9.280;2022-07-29T21:40:56;16.70;99.90
11619;DHT22;5865;48.776;9.280;2022-07-29T21:43:23;16.80;99.90
11619;DHT22;5865;48.776;9.280;2022-07-29T21:45:51;16.70;99.90
11619;DHT22;5865;48.776;9.280;2022-07-29T21:48:21;16.60;99.90
11619;DHT22;5865;48.776;9.280;2022-07-29T21:50:52;16.60;99.90
11619;DHT22;5865;48.776;9.280;2022-07-29T21:53:20;16.60;99.90
11619;DHT22;5865;48.776;9.280;2022-07-29T21:56:06;16.60;99.90
11619;DHT22;5865;48.776;9.280;2022-07-29T21:58:33;16.60;99.90
11619;DHT22;5865;48.776;9.280;2022-07-29T22:03:39;16.50;99.90
11619;DHT22;5865;48.776;9.280;2022-07-29T22:06:06;16.50;99.90
11619;DHT22;5865;48.776;9.280;2022-07-29T22:08:33;16.70;99.90
11619;DHT22;5865;48.776;9.280;2022-07-29T22:11:03;16.70;99.90
11619;DHT22;5865;48.776;9.280;2022-07-29T22:13:32;16.50;99.90
11619;DHT22;5865;48.776;9.280;2022-07-29T22:15:58;16.50;99.90
11619;DHT22;5865;48.776;9.280;2022-07-29T22:23:20;16.40;99.90
11619;DHT22;5865;48.776;9.280;2022-07-29T22:25:47;16.40;99.90
11619;DHT22;5865;48.776;9.280;2022-07-29T22:28:14;16.40;99.90
11619;DHT22;5865;48.776;9.280;2022-07-29T22:30:43;16.40;99.90
11619;DHT22;5865;48.776;9.280;2022-07-29T22:33:10;16.50;99.90
11619;DHT22;5865;48.776;9.280;2022-07-29T22:38:04;16.50;99.90
11619;DHT22;5865;48.776;9.280;2022-07-29T22:45:26;16.50;99.90
11619;DHT22;5865;48.776;9.280;2022-07-29T22:52:49;16.50;99.90
11619;DHT22;5865;48.776;9.280;2022-07-29T22:55:16;16.40;99.90
11619;DHT22;5865;48.776;9.280;2022-07-29T22:57:43;16.40;99.90
11619;DHT22;5865;48.776;9.280;2022-07-29T23:00:11;16.40;99.90
11619;DHT22;5865;48.776;9.280;2022-07-29T23:10:04;16.50;99.90
11619;DHT22;5865;48.776;9.280;2022-07-29T23:12:31;16.60;99.90
11619;DHT22;5865;48.776;9.280;2022-07-29T23:14:58;16.60;99.90
11619;DHT22;5865;48.776;9.280;2022-07-29T23:17:25;16.50;99.90
11619;DHT22;5865;48.776;9.280;2022-07-29T23:34:37;16.40;99.90
11619;DHT22;5865;48.776;9.280;2022-07-29T23:39:33;16.20;99.90
11619;DHT22;5865;48.776;9.280;2022-07-29T23:59:15;16.00;99.90
